createdAt,value
2023-05-20T00:00:54.793Z,12.52
2023-05-20T00:03:23.075Z,12.51
2023-05-20T00:05:51.515Z,12.50
2023-05-20T00:08:19.959Z,12.50
2023-05-20T00:10:48.037Z,12.52
2023-05-20T00:13:15.944Z,12.54
2023-05-20T00:15:43.971Z,12.55
2023-05-20T00:18:12.067Z,12.56
2023-05-20T00:20:40.115Z,12.56
2023-05-20T00:23:08.182Z,12.57
2023-05-20T00:25:36.408Z,12.59
2023-05-20T00:28:06.197Z,12.62
2023-05-20T00:30:34.157Z,12.62
2023-05-20T00:33:02.369Z,12.62
2023-05-20T00:35:30.395Z,12.62
2023-05-20T00:37:58.286Z,12.61
2023-05-20T00:40:26.396Z,12.62
2023-05-20T00:42:54.932Z,12.64
2023-05-20T00:45:23.122Z,12.66
2023-05-20T00:47:51.251Z,12.66
2023-05-20T00:50:19.323Z,12.65
2023-05-20T00:52:48.384Z,12.64
2023-05-20T00:55:16.774Z,12.64
2023-05-20T00:57:44.793Z,12.67
2023-05-20T01:00:14.205Z,12.68
2023-05-20T01:02:42.355Z,12.69
2023-05-20T01:05:10.829Z,12.68
2023-05-20T01:07:39.012Z,12.69
2023-05-20T01:10:07.647Z,12.68
2023-05-20T01:13:05.291Z,12.68
2023-05-20T01:15:33.960Z,12.67
2023-05-20T01:18:06.093Z,12.66
2023-05-20T01:20:35.994Z,12.66
2023-05-20T01:23:04.407Z,12.66
2023-05-20T01:25:32.527Z,12.67
2023-05-20T01:28:02.222Z,12.67
2023-05-20T01:30:36.069Z,12.67
2023-05-20T01:33:09.820Z,12.66
2023-05-20T01:35:41.552Z,12.65
2023-05-20T01:38:12.733Z,12.66
2023-05-20T01:40:42.927Z,12.67
2023-05-20T01:43:11.175Z,12.68
2023-05-20T01:45:42.049Z,12.68
2023-05-20T01:48:13.541Z,12.67
2023-05-20T01:50:42.520Z,12.65
2023-05-20T01:53:11.742Z,12.65
2023-05-20T01:55:39.771Z,12.65
2023-05-20T01:58:07.769Z,12.64
2023-05-20T02:00:37.138Z,12.65
2023-05-20T02:03:05.420Z,12.65
2023-05-20T02:05:33.744Z,12.63
2023-05-20T02:08:02.069Z,12.62
2023-05-20T02:10:30.087Z,12.63
2023-05-20T02:12:58.025Z,12.66
2023-05-20T02:15:26.226Z,12.66
2023-05-20T02:17:54.926Z,12.67
2023-05-20T02:20:22.941Z,12.66
2023-05-20T02:22:50.953Z,12.65
2023-05-20T02:25:18.994Z,12.64
2023-05-20T02:27:46.977Z,12.65
2023-05-20T02:30:15.201Z,12.65
2023-05-20T02:32:43.272Z,12.63
2023-05-20T02:35:11.441Z,12.61
2023-05-20T02:37:39.598Z,12.63
2023-05-20T02:40:09.385Z,12.61
2023-05-20T02:42:41.263Z,12.59
2023-05-20T02:45:09.787Z,12.59
2023-05-20T02:47:37.840Z,12.58
2023-05-20T02:50:07.227Z,12.57
2023-05-20T02:52:35.243Z,12.57
2023-05-20T02:55:04.924Z,12.56
2023-05-20T02:57:35.138Z,12.56
2023-05-20T03:00:05.054Z,12.56
2023-05-20T03:02:33.849Z,12.56
2023-05-20T03:05:02.614Z,12.56
2023-05-20T03:07:31.716Z,12.56
2023-05-20T03:09:59.992Z,12.56
2023-05-20T03:12:28.031Z,12.57
2023-05-20T03:14:56.110Z,12.57
2023-05-20T03:17:24.307Z,12.55
2023-05-20T03:19:52.239Z,12.56
2023-05-20T03:22:20.227Z,12.54
2023-05-20T03:24:48.511Z,12.53
2023-05-20T03:27:16.475Z,12.52
2023-05-20T03:29:44.633Z,12.52
2023-05-20T03:32:12.573Z,12.53
2023-05-20T03:34:40.846Z,12.54
2023-05-20T03:37:08.834Z,12.55
2023-05-20T03:39:36.951Z,12.56
2023-05-20T03:42:05.536Z,12.56
2023-05-20T03:44:33.956Z,12.56
2023-05-20T03:47:02.093Z,12.57
2023-05-20T03:49:31.123Z,12.61
2023-05-20T03:51:59.167Z,12.65
2023-05-20T03:54:28.163Z,12.66
2023-05-20T03:56:56.689Z,12.68
2023-05-20T03:59:24.919Z,12.70
2023-05-20T04:01:53.375Z,12.68
2023-05-20T04:04:21.472Z,12.71
2023-05-20T04:06:49.914Z,12.75
2023-05-20T04:09:17.905Z,12.77
2023-05-20T04:11:46.301Z,12.77
2023-05-20T04:14:15.350Z,12.77
2023-05-20T04:16:45.252Z,12.78
2023-05-20T04:19:13.424Z,12.81
2023-05-20T04:21:43.322Z,12.83
2023-05-20T04:24:11.855Z,12.86
2023-05-20T04:26:40.296Z,12.87
2023-05-20T04:29:08.268Z,12.89
2023-05-20T04:31:38.592Z,12.89
2023-05-20T04:34:06.597Z,12.90
2023-05-20T04:36:34.740Z,12.92
2023-05-20T04:39:05.135Z,12.93
2023-05-20T04:41:33.265Z,12.95
2023-05-20T04:44:01.969Z,12.95
2023-05-20T04:46:31.718Z,12.99
2023-05-20T04:48:59.967Z,13.02
2023-05-20T04:51:29.493Z,13.02
2023-05-20T04:54:35.866Z,13.01
2023-05-20T04:57:35.321Z,13.03
2023-05-20T05:00:07.368Z,13.06
2023-05-20T05:02:36.352Z,13.07
2023-05-20T05:05:05.044Z,13.10
2023-05-20T05:07:33.325Z,13.13
2023-05-20T05:10:01.462Z,13.15
2023-05-20T05:12:31.228Z,13.17
2023-05-20T05:14:59.999Z,13.17
2023-05-20T05:17:29.250Z,13.15
2023-05-20T05:19:58.269Z,13.15
2023-05-20T05:22:27.112Z,13.18
2023-05-20T05:24:55.902Z,13.20
2023-05-20T05:27:24.268Z,13.22
2023-05-20T05:29:52.510Z,13.23
2023-05-20T05:32:20.807Z,13.25
2023-05-20T05:34:49.123Z,13.27
2023-05-20T05:37:17.363Z,13.31
2023-05-20T05:39:45.610Z,13.33
2023-05-20T05:42:13.863Z,13.36
2023-05-20T05:44:42.784Z,13.36
2023-05-20T05:47:11.713Z,13.37
2023-05-20T05:49:39.833Z,13.40
2023-05-20T05:52:08.224Z,13.44
2023-05-20T05:54:36.626Z,13.48
2023-05-20T05:57:06.483Z,13.49
2023-05-20T05:59:35.468Z,13.49
2023-05-20T06:02:06.424Z,13.56
2023-05-20T06:04:34.508Z,13.55
2023-05-20T06:07:02.814Z,13.46
2023-05-20T06:09:31.112Z,13.44
2023-05-20T06:11:59.682Z,13.46
2023-05-20T06:14:27.775Z,13.48
2023-05-20T06:16:56.054Z,13.48
2023-05-20T06:19:24.602Z,13.49
2023-05-20T06:21:52.748Z,13.51
2023-05-20T06:24:22.410Z,13.52
2023-05-20T06:26:52.439Z,13.56
2023-05-20T06:29:21.063Z,13.66
2023-05-20T06:31:49.044Z,13.71
2023-05-20T06:34:16.996Z,13.73
2023-05-20T06:36:44.946Z,13.73
2023-05-20T06:39:13.127Z,13.71
2023-05-20T06:41:44.433Z,13.68
2023-05-20T06:44:19.943Z,13.69
2023-05-20T06:47:00.022Z,13.69
2023-05-20T06:49:28.531Z,13.72
2023-05-20T06:51:56.707Z,13.72
2023-05-20T06:54:25.598Z,13.70
2023-05-20T06:56:53.737Z,13.73
2023-05-20T06:59:22.689Z,13.79
2023-05-20T07:01:50.772Z,13.86
2023-05-20T07:04:19.883Z,13.91
2023-05-20T07:06:48.155Z,13.99
2023-05-20T07:09:16.482Z,14.01
2023-05-20T07:11:44.569Z,13.98
2023-05-20T07:14:12.961Z,14.04
2023-05-20T07:16:41.672Z,14.08
2023-05-20T07:19:10.115Z,14.17
2023-05-20T07:21:38.186Z,14.18
2023-05-20T07:24:24.301Z,14.21
2023-05-20T07:26:52.454Z,14.23
2023-05-20T07:29:20.549Z,14.26
2023-05-20T07:31:48.646Z,14.31
2023-05-20T07:34:17.513Z,14.38
2023-05-20T07:36:45.550Z,14.42
2023-05-20T07:39:15.331Z,14.49
2023-05-20T07:41:43.665Z,14.52
2023-05-20T07:44:13.078Z,14.54
2023-05-20T07:46:44.066Z,14.60
2023-05-20T07:49:12.537Z,14.67
2023-05-20T07:51:41.593Z,14.71
2023-05-20T07:54:09.717Z,14.76
2023-05-20T07:56:38.496Z,14.82
2023-05-20T07:59:07.606Z,14.85
2023-05-20T08:01:42.246Z,14.90
2023-05-20T08:04:12.084Z,14.95
2023-05-20T08:06:41.398Z,15.01
2023-05-20T08:09:11.811Z,15.12
2023-05-20T08:11:42.171Z,15.20
2023-05-20T08:14:10.264Z,15.26
2023-05-20T08:16:42.470Z,15.31
2023-05-20T08:19:10.751Z,15.32
2023-05-20T08:21:39.248Z,15.33
2023-05-20T08:24:08.089Z,15.36
2023-05-20T08:26:36.411Z,15.40
2023-05-20T08:29:04.500Z,15.52
2023-05-20T08:31:33.583Z,15.66
2023-05-20T08:34:01.811Z,15.80
2023-05-20T08:36:29.888Z,15.91
2023-05-20T08:38:58.035Z,16.01
2023-05-20T08:41:26.424Z,16.14
2023-05-20T08:43:54.702Z,16.19
2023-05-20T08:46:23.652Z,16.16
2023-05-20T08:48:52.223Z,16.21
2023-05-20T08:51:23.834Z,16.26
2023-05-20T08:53:52.351Z,16.37
2023-05-20T08:56:21.991Z,16.53
2023-05-20T08:58:50.549Z,16.68
2023-05-20T09:01:18.703Z,16.84
2023-05-20T09:03:46.670Z,16.95
2023-05-20T09:06:17.986Z,17.00
2023-05-20T09:08:47.024Z,17.02
2023-05-20T09:11:15.113Z,17.11
2023-05-20T09:13:43.431Z,17.21
2023-05-20T09:16:11.791Z,17.27
2023-05-20T09:18:40.894Z,17.34
2023-05-20T09:21:10.285Z,17.41
2023-05-20T09:23:38.665Z,17.49
2023-05-20T09:26:06.895Z,17.66
2023-05-20T09:28:36.144Z,17.68
2023-05-20T09:31:05.807Z,17.70
2023-05-20T09:33:35.685Z,17.69
2023-05-20T09:36:05.129Z,17.64
2023-05-20T09:38:38.254Z,17.62
2023-05-20T09:41:13.925Z,17.66
2023-05-20T09:43:42.484Z,17.66
2023-05-20T09:46:10.997Z,17.72
2023-05-20T09:48:40.156Z,17.72
2023-05-20T09:51:09.826Z,17.71
2023-05-20T09:53:38.021Z,17.71
2023-05-20T09:56:06.285Z,17.69
2023-05-20T09:58:36.135Z,17.70
2023-05-20T10:01:04.218Z,17.66
2023-05-20T10:03:33.450Z,17.61
2023-05-20T10:06:21.544Z,17.65
2023-05-20T10:08:58.077Z,17.64
2023-05-20T10:11:44.363Z,17.64
2023-05-20T10:14:37.164Z,17.68
2023-05-20T10:17:13.490Z,17.63
2023-05-20T10:19:41.946Z,17.51
2023-05-20T10:22:11.791Z,17.52
2023-05-20T10:24:41.895Z,17.60
2023-05-20T10:27:18.176Z,17.71
2023-05-20T10:29:52.291Z,17.80
2023-05-20T10:32:27.991Z,17.89
2023-05-20T10:35:01.626Z,17.76
2023-05-20T10:37:30.560Z,17.61
2023-05-20T10:40:08.898Z,17.40
2023-05-20T10:42:37.137Z,17.16
2023-05-20T10:45:06.526Z,17.24
2023-05-20T10:47:35.354Z,17.57
2023-05-20T10:50:06.025Z,18.03
2023-05-20T10:52:37.050Z,18.49
2023-05-20T10:55:05.538Z,18.84
2023-05-20T10:57:34.658Z,19.06
2023-05-20T11:00:05.593Z,19.22
2023-05-20T11:02:34.515Z,19.41
2023-05-20T11:05:04.390Z,19.65
2023-05-20T11:07:32.582Z,19.90
2023-05-20T11:10:00.667Z,20.01
2023-05-20T11:12:28.705Z,20.09
2023-05-20T11:14:56.902Z,20.21
2023-05-20T11:17:25.000Z,20.23
2023-05-20T11:19:53.044Z,20.33
2023-05-20T11:22:21.218Z,20.50
2023-05-20T11:24:49.195Z,20.52
2023-05-20T11:27:17.306Z,20.58
2023-05-20T11:29:45.547Z,20.77
2023-05-20T11:32:13.551Z,20.92
2023-05-20T11:34:42.734Z,21.01
2023-05-20T11:37:11.796Z,21.09
2023-05-20T11:39:40.381Z,21.21
2023-05-20T11:42:08.451Z,21.31
2023-05-20T11:44:36.583Z,21.27
2023-05-20T11:47:04.845Z,21.15
2023-05-20T11:49:40.534Z,20.87
2023-05-20T11:52:10.308Z,20.48
2023-05-20T11:54:38.622Z,19.97
2023-05-20T11:57:07.328Z,19.70
2023-05-20T11:59:35.630Z,19.54
2023-05-20T12:02:03.687Z,19.57
2023-05-20T12:04:31.743Z,19.76
2023-05-20T12:06:59.891Z,19.96
2023-05-20T12:09:28.027Z,20.22
2023-05-20T12:11:56.916Z,20.44
2023-05-20T12:14:24.964Z,20.70
2023-05-20T12:16:53.804Z,20.83
2023-05-20T12:19:21.814Z,20.57
2023-05-20T12:21:49.890Z,20.18
2023-05-20T12:24:17.890Z,19.86
2023-05-20T12:26:45.830Z,19.72
2023-05-20T12:29:13.890Z,19.59
2023-05-20T12:31:41.899Z,19.48
2023-05-20T12:34:09.841Z,19.41
2023-05-20T12:36:37.970Z,19.38
2023-05-20T12:39:06.229Z,19.27
2023-05-20T12:41:34.333Z,19.13
2023-05-20T12:44:02.559Z,19.11
2023-05-20T12:46:30.754Z,19.32
2023-05-20T12:48:58.760Z,19.36
2023-05-20T12:51:26.783Z,19.11
2023-05-20T12:53:54.784Z,19.04
2023-05-20T12:56:23.831Z,19.05
2023-05-20T12:58:51.875Z,19.10
2023-05-20T13:01:19.869Z,19.25
2023-05-20T13:03:48.127Z,19.36
2023-05-20T13:06:16.798Z,19.38
2023-05-20T13:08:45.484Z,19.41
2023-05-20T13:11:13.784Z,19.44
2023-05-20T13:13:41.757Z,19.44
2023-05-20T13:16:10.699Z,19.37
2023-05-20T13:18:38.753Z,19.25
2023-05-20T13:21:06.847Z,19.11
2023-05-20T13:23:34.910Z,19.04
2023-05-20T13:26:03.125Z,18.99
2023-05-20T13:28:31.442Z,18.99
2023-05-20T13:30:59.486Z,19.09
2023-05-20T13:33:27.508Z,19.17
2023-05-20T13:35:55.635Z,19.22
2023-05-20T13:38:23.638Z,19.27
2023-05-20T13:40:51.738Z,19.32
2023-05-20T13:43:19.687Z,19.42
2023-05-20T13:45:47.799Z,19.61
2023-05-20T13:48:16.260Z,19.99
2023-05-20T13:50:44.420Z,20.31
2023-05-20T13:53:13.886Z,20.52
2023-05-20T13:55:42.123Z,20.64
2023-05-20T13:58:10.149Z,20.68
2023-05-20T14:00:39.137Z,20.70
2023-05-20T14:03:09.192Z,20.80
2023-05-20T14:05:37.533Z,20.82
2023-05-20T14:08:05.679Z,20.82
2023-05-20T14:10:33.929Z,20.87
2023-05-20T14:13:02.296Z,20.79
2023-05-20T14:15:33.078Z,20.66
2023-05-20T14:18:01.138Z,20.56
2023-05-20T14:20:29.085Z,20.51
2023-05-20T14:22:57.324Z,20.48
2023-05-20T14:25:25.301Z,20.30
2023-05-20T14:27:53.370Z,20.06
2023-05-20T14:30:21.464Z,19.86
2023-05-20T14:32:49.564Z,19.71
2023-05-20T14:35:18.354Z,19.71
2023-05-20T14:37:46.574Z,19.69
2023-05-20T14:40:14.847Z,19.58
2023-05-20T14:42:42.829Z,19.49
2023-05-20T14:45:11.281Z,19.39
2023-05-20T14:47:42.002Z,19.34
2023-05-20T14:50:10.226Z,19.36
2023-05-20T14:52:38.256Z,19.38
2023-05-20T14:55:06.348Z,19.38
2023-05-20T14:57:34.381Z,19.40
2023-05-20T15:00:02.413Z,19.45
2023-05-20T15:02:30.610Z,19.46
2023-05-20T15:04:59.052Z,19.46
2023-05-20T15:07:27.737Z,19.51
2023-05-20T15:09:55.894Z,19.50
2023-05-20T15:12:24.005Z,19.46
2023-05-20T15:14:51.946Z,19.58
2023-05-20T15:17:19.883Z,19.66
2023-05-20T15:19:47.829Z,19.55
2023-05-20T15:22:15.866Z,19.51
2023-05-20T15:24:43.790Z,19.52
2023-05-20T15:27:11.787Z,19.47
2023-05-20T15:29:40.906Z,19.44
2023-05-20T15:32:09.088Z,19.40
2023-05-20T15:34:37.142Z,19.42
2023-05-20T15:37:05.103Z,19.38
2023-05-20T15:39:37.294Z,19.29
2023-05-20T15:42:06.416Z,19.17
2023-05-20T15:44:36.163Z,19.03
2023-05-20T15:47:06.145Z,19.00
2023-05-20T15:49:34.258Z,19.03
2023-05-20T15:52:03.924Z,19.01
2023-05-20T15:54:32.957Z,18.93
2023-05-20T15:57:01.260Z,18.88
2023-05-20T15:59:29.314Z,18.82
2023-05-20T16:01:57.481Z,18.75
2023-05-20T16:04:25.896Z,18.69
2023-05-20T16:06:54.094Z,18.67
2023-05-20T16:09:22.443Z,18.70
2023-05-20T16:11:50.492Z,18.70
2023-05-20T16:14:18.657Z,18.68
2023-05-20T16:16:46.720Z,18.70
2023-05-20T16:19:14.790Z,18.65
2023-05-20T16:21:42.794Z,18.65
2023-05-20T16:24:10.877Z,18.72
2023-05-20T16:26:38.869Z,18.74
2023-05-20T16:29:07.172Z,18.74
2023-05-20T16:31:35.134Z,18.72
2023-05-20T16:34:03.986Z,18.73
2023-05-20T16:36:32.039Z,18.78
2023-05-20T16:38:59.977Z,18.82
2023-05-20T16:41:28.004Z,18.84
2023-05-20T16:43:58.752Z,18.79
2023-05-20T16:46:26.783Z,18.76
2023-05-20T16:48:54.958Z,18.71
2023-05-20T16:51:23.608Z,18.68
2023-05-20T16:53:51.926Z,18.67
2023-05-20T16:56:22.115Z,18.63
2023-05-20T16:58:52.682Z,18.61
2023-05-20T17:01:21.911Z,18.64
2023-05-20T17:03:50.013Z,18.69
2023-05-20T17:06:18.066Z,18.68
2023-05-20T17:08:46.188Z,18.69
2023-05-20T17:11:14.223Z,18.70
2023-05-20T17:13:42.398Z,18.69
2023-05-20T17:16:12.120Z,18.66
2023-05-20T17:18:40.327Z,18.66
2023-05-20T17:21:08.382Z,18.62
2023-05-20T17:23:36.375Z,18.59
2023-05-20T17:26:04.577Z,18.55
2023-05-20T17:28:32.537Z,18.50
2023-05-20T17:31:00.492Z,18.47
2023-05-20T17:33:28.676Z,18.43
2023-05-20T17:35:57.084Z,18.39
2023-05-20T17:38:26.502Z,18.34
2023-05-20T17:40:55.271Z,18.28
2023-05-20T17:43:25.164Z,18.24
2023-05-20T17:45:53.330Z,18.19
2023-05-20T17:48:21.426Z,18.13
2023-05-20T17:50:49.520Z,18.07
2023-05-20T17:53:18.717Z,18.01
2023-05-20T17:55:49.506Z,17.96
2023-05-20T17:58:17.608Z,17.90
2023-05-20T18:00:45.577Z,17.83
2023-05-20T18:03:13.980Z,17.76
2023-05-20T18:05:42.564Z,17.69
2023-05-20T18:08:10.573Z,17.62
2023-05-20T18:10:38.930Z,17.56
2023-05-20T18:13:06.895Z,17.53
2023-05-20T18:15:34.846Z,17.52
2023-05-20T18:18:02.977Z,17.49
2023-05-20T18:20:31.146Z,17.42
2023-05-20T18:22:59.284Z,17.34
2023-05-20T18:25:27.400Z,17.25
2023-05-20T18:27:55.531Z,17.15
2023-05-20T18:30:23.686Z,17.06
2023-05-20T18:32:51.874Z,16.96
2023-05-20T18:35:19.928Z,16.86
2023-05-20T18:37:47.893Z,16.76
2023-05-20T18:40:15.927Z,16.66
2023-05-20T18:42:43.905Z,16.55
2023-05-20T18:45:12.277Z,16.43
2023-05-20T18:47:40.403Z,16.34
2023-05-20T18:50:09.635Z,16.24
2023-05-20T18:52:37.662Z,16.14
2023-05-20T18:55:08.974Z,16.02
2023-05-20T18:57:37.853Z,15.92
2023-05-20T19:00:10.784Z,15.83
2023-05-20T19:02:40.173Z,15.74
2023-05-20T19:05:09.346Z,15.65
2023-05-20T19:07:38.544Z,15.55
2023-05-20T19:10:07.521Z,15.44
2023-05-20T19:12:35.470Z,15.35
2023-05-20T19:15:05.188Z,15.29
2023-05-20T19:17:33.851Z,15.24
2023-05-20T19:20:02.565Z,15.17
2023-05-20T19:22:30.936Z,15.10
2023-05-20T19:24:59.351Z,15.04
2023-05-20T19:27:27.420Z,14.97
2023-05-20T19:29:55.571Z,14.90
2023-05-20T19:32:23.683Z,14.85
2023-05-20T19:34:51.682Z,14.79
2023-05-20T19:37:22.341Z,14.75
2023-05-20T19:39:51.124Z,14.71
2023-05-20T19:42:19.085Z,14.67
2023-05-20T19:44:47.289Z,14.62
2023-05-20T19:47:15.757Z,14.58
2023-05-20T19:49:43.749Z,14.53
2023-05-20T19:52:11.690Z,14.48
2023-05-20T19:54:41.785Z,14.42
2023-05-20T19:57:10.064Z,14.36
2023-05-20T19:59:38.357Z,14.32
2023-05-20T20:02:07.040Z,14.28
2023-05-20T20:04:36.468Z,14.23
2023-05-20T20:07:04.751Z,14.17
2023-05-20T20:09:33.454Z,14.11
2023-05-20T20:12:02.829Z,14.06
2023-05-20T20:14:31.376Z,14.00
2023-05-20T20:16:59.809Z,13.95
2023-05-20T20:19:28.633Z,13.89
2023-05-20T20:21:58.159Z,13.83
2023-05-20T20:24:28.028Z,13.81
2023-05-20T20:26:57.054Z,13.80
2023-05-20T20:29:25.702Z,13.80
2023-05-20T20:31:54.364Z,13.77
2023-05-20T20:34:22.807Z,13.74
2023-05-20T20:36:51.385Z,13.72
2023-05-20T20:39:19.496Z,13.69
2023-05-20T20:41:52.272Z,13.66
2023-05-20T20:44:23.126Z,13.63
2023-05-20T20:46:51.917Z,13.59
2023-05-20T20:49:22.172Z,13.57
2023-05-20T20:51:51.019Z,13.53
2023-05-20T20:54:19.010Z,13.50
2023-05-20T20:56:47.293Z,13.48
2023-05-20T20:59:16.045Z,13.46
2023-05-20T21:01:45.140Z,13.44
2023-05-20T21:04:13.974Z,13.43
2023-05-20T21:06:42.525Z,13.41
2023-05-20T21:09:11.640Z,13.39
2023-05-20T21:11:42.475Z,13.37
2023-05-20T21:14:12.407Z,13.35
2023-05-20T21:16:42.158Z,13.33
2023-05-20T21:19:12.930Z,13.33
2023-05-20T21:21:41.044Z,13.32
2023-05-20T21:24:09.019Z,13.32
2023-05-20T21:26:37.007Z,13.31
2023-05-20T21:29:06.111Z,13.30
2023-05-20T21:31:34.161Z,13.30
2023-05-20T21:34:02.254Z,13.29
2023-05-20T21:36:30.538Z,13.30
2023-05-20T21:38:58.485Z,13.31
2023-05-20T21:41:27.334Z,13.33
2023-05-20T21:43:55.555Z,13.35
2023-05-20T21:46:23.807Z,13.34
2023-05-20T21:48:51.865Z,13.34
2023-05-20T21:51:19.952Z,13.34
2023-05-20T21:53:47.924Z,13.35
2023-05-20T21:56:15.902Z,13.35
2023-05-20T21:58:43.892Z,13.35
2023-05-20T22:01:11.986Z,13.36
2023-05-20T22:03:40.344Z,13.37
2023-05-20T22:06:09.237Z,13.36
2023-05-20T22:08:37.267Z,13.34
2023-05-20T22:11:08.417Z,13.32
2023-05-20T22:13:36.410Z,13.32
2023-05-20T22:16:05.194Z,13.32
2023-05-20T22:18:34.048Z,13.31
2023-05-20T22:21:02.114Z,13.31
2023-05-20T22:23:30.093Z,13.32
2023-05-20T22:25:58.240Z,13.33
2023-05-20T22:28:26.334Z,13.33
2023-05-20T22:30:54.842Z,13.33
2023-05-20T22:33:24.389Z,13.32
2023-05-20T22:35:53.603Z,13.31
2023-05-20T22:38:22.033Z,13.29
2023-05-20T22:40:50.097Z,13.27
2023-05-20T22:43:18.068Z,13.27
2023-05-20T22:45:46.139Z,13.26
2023-05-20T22:48:14.388Z,13.25
2023-05-20T22:50:42.307Z,13.24
2023-05-20T22:53:10.237Z,13.22
2023-05-20T22:55:38.859Z,13.22
2023-05-20T22:58:08.024Z,13.22
2023-05-20T23:00:36.438Z,13.21
2023-05-20T23:03:05.107Z,13.19
2023-05-20T23:05:33.237Z,13.16
2023-05-20T23:08:01.422Z,13.12
2023-05-20T23:10:29.454Z,13.07
2023-05-20T23:12:57.399Z,13.02
2023-05-20T23:15:25.540Z,12.98
2023-05-20T23:17:53.590Z,12.96
2023-05-20T23:20:22.345Z,12.94
2023-05-20T23:22:50.646Z,12.92
2023-05-20T23:25:18.618Z,12.90
2023-05-20T23:27:46.697Z,12.88
2023-05-20T23:30:14.739Z,12.87
2023-05-20T23:32:42.855Z,12.87
2023-05-20T23:35:11.798Z,12.86
2023-05-20T23:37:41.227Z,12.85
2023-05-20T23:40:09.711Z,12.84
2023-05-20T23:42:38.032Z,12.81
2023-05-20T23:45:06.590Z,12.76
2023-05-20T23:47:36.323Z,12.74
2023-05-20T23:50:04.491Z,12.71
2023-05-20T23:52:32.503Z,12.69
2023-05-20T23:55:00.462Z,12.67
2023-05-20T23:57:28.525Z,12.67
2023-05-20T23:59:56.569Z,12.66
